Time;durP1;ratioP1;P1;durP2;ratioP2;P2;SDS_P1;SDS_P2;PMS_P1;PMS_P2;Temp;Humidity;BMP_temperature;BMP_pressure;BME280_temperature;BME280_humidity;BME280_pressure;Samples;Min_cycle;Max_cycle;Signal;HPM_P1;HPM_P2
2023/03/17 00:00:43;;;;;;;10.73;4.83;;;;;;;3.65;88.89;95000.00;5006844;28;20600;-77
2023/03/17 00:03:20;;;;;;;9.87;4.67;;;;;;;3.64;88.81;94995.75;5006548;28;20184;-76
2023/03/17 00:05:46;;;;;;;9.50;5.90;;;;;;;3.58;88.98;94993.81;5012181;28;20648;-77
2023/03/17 00:08:19;;;;;;;7.73;4.43;;;;;;;3.63;88.92;95003.75;5011992;28;20192;-77
2023/03/17 00:10:44;;;;;;;9.02;5.40;;;;;;;3.64;89.27;95013.16;5006592;28;20442;-77
2023/03/17 00:13:11;;;;;;;10.50;5.82;;;;;;;3.67;89.29;95010.25;5010803;28;20433;-77
2023/03/17 00:15:36;;;;;;;10.03;5.33;;;;;;;3.71;88.76;95017.56;5008242;28;20569;-77
2023/03/17 00:18:02;;;;;;;10.65;5.85;;;;;;;3.69;88.88;95010.91;5010886;28;20414;-77
2023/03/17 00:20:31;;;;;;;6.40;4.30;;;;;;;3.77;88.98;95016.91;5008091;28;20184;-76
2023/03/17 00:23:03;;;;;;;9.67;5.10;;;;;;;3.65;88.47;94991.38;5009087;28;20583;-78
2023/03/17 00:25:33;;;;;;;11.47;5.10;;;;;;;3.57;88.49;94979.19;5007268;28;20264;-79
2023/03/17 00:28:00;;;;;;;10.40;5.80;;;;;;;3.76;88.31;95007.47;5004459;28;20202;-78
2023/03/17 00:30:26;;;;;;;9.83;5.40;;;;;;;3.74;88.46;95006.81;5009947;28;20204;-77
2023/03/17 00:32:56;;;;;;;7.23;4.53;;;;;;;3.74;88.46;95012.00;5012050;28;20185;-76
2023/03/17 00:35:29;;;;;;;12.37;5.60;;;;;;;3.65;88.73;94999.16;5010451;28;20215;-77
2023/03/17 00:37:57;;;;;;;10.77;5.50;;;;;;;3.70;88.64;95010.72;5010739;28;20196;-77
2023/03/17 00:40:23;;;;;;;11.40;5.73;;;;;;;3.69;88.44;95009.09;5012138;28;20660;-76
2023/03/17 00:42:51;;;;;;;10.57;5.37;;;;;;;3.65;88.51;94999.16;5012303;28;20177;-77
2023/03/17 00:45:18;;;;;;;9.10;5.47;;;;;;;3.68;88.33;95007.47;5011356;28;20184;-77
2023/03/17 00:47:44;;;;;;;9.80;5.80;;;;;;;3.69;88.86;95003.09;5010581;28;20810;-77
2023/03/17 00:50:16;;;;;;;11.03;6.33;;;;;;;3.64;89.04;94997.53;5011772;28;20208;-77
2023/03/17 00:52:43;;;;;;;12.37;6.37;;;;;;;3.68;89.08;95004.88;5004592;28;20256;-77
2023/03/17 00:55:09;;;;;;;12.90;5.00;;;;;;;3.69;88.90;95009.09;5007782;28;20184;-77
2023/03/17 00:57:37;;;;;;;6.75;5.00;;;;;;;3.65;89.47;95013.00;5006933;28;20426;-77
2023/03/17 01:00:04;;;;;;;10.00;5.82;;;;;;;3.66;89.54;95013.81;5010187;28;20422;-78
2023/03/17 01:02:29;;;;;;;12.10;5.30;;;;;;;3.69;89.40;95014.31;5005217;28;20180;-77
2023/03/17 01:04:56;;;;;;;8.13;5.10;;;;;;;3.79;88.94;95014.13;5012307;28;20181;-77
2023/03/17 01:07:23;;;;;;;5.43;4.13;;;;;;;3.73;88.48;95002.56;5005850;28;20666;-77
2023/03/17 01:09:49;;;;;;;13.32;6.53;;;;;;;3.65;88.36;95004.38;5004640;28;20446;-77
2023/03/17 01:12:15;;;;;;;10.65;6.18;;;;;;;3.42;88.84;95020.66;5010814;28;20832;-77
2023/03/17 01:14:40;;;;;;;11.10;6.28;;;;;;;3.16;90.22;95007.00;5010316;28;20423;-78
2023/03/17 01:17:15;;;;;;;11.50;5.87;;;;;;;3.14;90.44;94998.53;5006425;28;20419;-77
2023/03/17 01:19:41;;;;;;;7.70;5.13;;;;;;;3.22;90.59;95021.13;5009823;28;20481;-77
2023/03/17 01:22:07;;;;;;;5.60;4.53;;;;;;;3.34;90.67;95018.06;5007345;28;20557;-77
2023/03/17 01:24:33;;;;;;;5.97;4.27;;;;;;;3.22;90.07;94992.53;5011860;28;20187;-77
2023/03/17 01:26:58;;;;;;;6.93;3.90;;;;;;;3.48;89.96;95027.00;5011522;28;20180;-76
2023/03/17 01:29:24;;;;;;;5.10;4.53;;;;;;;3.41;90.19;95008.63;5007699;28;20222;-76
2023/03/17 01:31:49;;;;;;;6.50;4.23;;;;;;;3.50;90.37;95024.25;5010216;28;20181;-76
2023/03/17 01:34:15;;;;;;;7.23;4.17;;;;;;;3.53;90.43;95022.13;5014983;28;20184;-76
2023/03/17 01:36:40;;;;;;;7.70;4.57;;;;;;;3.57;90.44;95025.22;5014938;28;20271;-77
2023/03/17 01:39:06;;;;;;;9.47;5.30;;;;;;;3.59;90.03;95024.06;5012337;28;20172;-77
2023/03/17 01:41:33;;;;;;;10.37;5.50;;;;;;;3.46;90.43;94997.72;5015174;28;20230;-77
2023/03/17 01:43:59;;;;;;;8.77;5.40;;;;;;;3.64;90.13;95027.00;5012767;28;20188;-76
2023/03/17 01:46:32;;;;;;;8.70;5.07;;;;;;;3.68;89.56;95027.47;5013173;28;20188;-78
2023/03/17 01:49:13;;;;;;;8.20;5.10;;;;;;;3.64;89.11;95027.00;5024541;28;20235;-77
2023/03/17 01:51:41;;;;;;;6.23;4.77;;;;;;;3.65;89.52;95028.63;5028601;28;20178;-77
2023/03/17 01:54:13;;;;;;;7.18;5.03;;;;;;;3.62;89.39;95033.34;5009681;28;20812;-77
2023/03/17 01:56:42;;;;;;;6.03;4.17;;;;;;;3.62;89.30;95035.97;5011849;28;20181;-77
2023/03/17 01:59:13;;;;;;;6.47;4.90;;;;;;;3.68;89.25;95038.72;5014566;28;20178;-76
2023/03/17 02:01:43;;;;;;;9.63;5.13;;;;;;;3.67;88.74;95036.25;5014642;28;20684;-77
2023/03/17 02:04:10;;;;;;;6.10;4.97;;;;;;;3.50;88.87;95009.44;5010672;28;20177;-76
2023/03/17 02:06:37;;;;;;;6.47;5.20;;;;;;;3.67;88.76;95041.47;5010837;28;20219;-76
2023/03/17 02:09:03;;;;;;;8.33;5.10;;;;;;;3.54;88.55;95015.16;5017397;28;20286;-76
2023/03/17 02:11:30;;;;;;;8.53;5.13;;;;;;;3.68;89.20;95041.31;5021576;28;20177;-76
2023/03/17 02:13:56;;;;;;;6.00;4.77;;;;;;;3.71;89.11;95037.56;5014031;28;20211;-76
2023/03/17 02:16:21;;;;;;;8.10;4.70;;;;;;;3.65;89.05;95038.22;5007949;28;20185;-76
2023/03/17 02:18:47;;;;;;;5.53;4.30;;;;;;;3.71;88.85;95042.78;5010965;28;20172;-76
2023/03/17 02:21:37;;;;;;;6.90;4.33;;;;;;;3.65;89.54;95038.22;5027162;28;20199;-76
2023/03/17 02:24:07;;;;;;;8.43;5.32;;;;;;;3.68;89.46;95043.91;5000273;28;20493;-76
2023/03/17 02:26:35;;;;;;;7.20;5.10;;;;;;;3.70;88.73;95043.75;4999175;28;20577;-76
2023/03/17 02:29:00;;;;;;;9.55;5.70;;;;;;;3.69;89.33;95050.75;5031644;28;20816;-76
2023/03/17 02:31:26;;;;;;;6.93;4.70;;;;;;;3.71;88.77;95046.19;5010259;28;20185;-76
2023/03/17 02:33:52;;;;;;;6.23;4.73;;;;;;;3.74;88.94;95040.66;5001682;28;20271;-76
2023/03/17 02:36:19;;;;;;;4.63;3.90;;;;;;;3.75;88.51;95054.47;5032986;28;20652;-76
2023/03/17 02:38:44;;;;;;;10.75;5.70;;;;;;;3.72;88.66;95053.00;5032944;28;20424;-76
2023/03/17 02:41:10;;;;;;;11.17;6.57;;;;;;;3.76;88.40;95058.72;5032682;28;20432;-76
2023/03/17 02:43:36;;;;;;;16.37;8.40;;;;;;;3.76;88.23;95061.31;5031344;28;21011;-76
2023/03/17 02:46:02;;;;;;;15.67;7.20;;;;;;;3.75;88.23;95060.50;5016490;28;20676;-75
2023/03/17 02:48:27;;;;;;;21.60;9.53;;;;;;;3.65;88.14;95049.44;5013437;28;20675;-75
2023/03/17 02:50:53;;;;;;;20.20;9.83;;;;;;;3.80;88.26;95071.22;5010482;28;20240;-76
2023/03/17 02:53:18;;;;;;;14.57;7.77;;;;;;;3.80;87.94;95073.03;4994150;28;20640;-76
2023/03/17 02:55:44;;;;;;;17.73;7.90;;;;;;;3.67;87.57;95046.69;4993883;28;20173;-76
2023/03/17 02:58:09;;;;;;;11.57;6.93;;;;;;;3.74;87.75;95064.06;5022099;28;20191;-75
2023/03/17 03:00:34;;;;;;;13.50;7.07;;;;;;;3.82;87.93;95076.28;5032712;28;20186;-75
2023/03/17 03:03:00;;;;;;;11.93;5.67;;;;;;;3.80;87.85;95068.63;5032631;28;20187;-75
2023/03/17 03:05:25;;;;;;;8.17;5.73;;;;;;;3.81;88.05;95077.25;5030781;28;20420;-75
2023/03/17 03:07:51;;;;;;;8.37;5.80;;;;;;;3.75;87.97;95070.09;4994607;28;20239;-75
2023/03/17 03:10:17;;;;;;;9.00;6.13;;;;;;;3.75;88.03;95070.09;4992154;28;20523;-75
2023/03/17 03:12:43;;;;;;;7.73;5.77;;;;;;;3.82;88.15;95083.25;5011402;28;20168;-78
2023/03/17 03:15:09;;;;;;;13.97;6.87;;;;;;;3.79;87.75;95085.25;5024565;28;20181;-75
2023/03/17 03:17:35;;;;;;;10.53;7.20;;;;;;;3.80;87.72;95086.84;5024381;28;20172;-75
2023/03/17 03:20:01;;;;;;;13.40;7.63;;;;;;;3.80;87.94;95079.03;5032346;28;20548;-75
2023/03/17 03:22:26;;;;;;;11.23;6.93;;;;;;;3.80;87.67;95083.44;5032550;28;20241;-75
2023/03/17 03:24:51;;;;;;;8.40;6.20;;;;;;;3.80;87.62;95088.66;5014454;28;20268;-75
2023/03/17 03:27:17;;;;;;;10.53;6.73;;;;;;;3.79;87.86;95097.44;4991972;28;20510;-76
2023/03/17 03:29:42;;;;;;;8.40;5.87;;;;;;;3.55;87.82;95060.97;5023459;28;20305;-76
2023/03/17 03:32:08;;;;;;;7.17;4.93;;;;;;;3.77;87.73;95096.78;4995261;28;20181;-76
2023/03/17 03:34:33;;;;;;;8.33;5.63;;;;;;;3.72;87.73;95091.25;4992880;28;20193;-75
2023/03/17 03:36:59;;;;;;;6.87;4.90;;;;;;;3.74;87.78;95097.91;4992874;28;20177;-76
2023/03/17 03:39:25;;;;;;;7.00;5.00;;;;;;;3.72;87.55;95101.66;5016151;28;20171;-76
2023/03/17 03:41:50;;;;;;;7.33;5.10;;;;;;;3.68;87.65;95098.56;5002157;28;20239;-76
2023/03/17 03:44:16;;;;;;;7.70;5.37;;;;;;;3.69;88.16;95092.41;4992929;28;20580;-77
2023/03/17 03:46:41;;;;;;;8.77;5.00;;;;;;;3.69;87.96;95102.81;4992802;28;20184;-76
2023/03/17 03:49:07;;;;;;;7.57;5.23;;;;;;;3.64;87.95;95097.25;5029636;28;20302;-76
2023/03/17 03:51:32;;;;;;;7.47;5.13;;;;;;;3.68;88.04;95109.00;5023904;28;20179;-75
2023/03/17 03:53:58;;;;;;;6.70;4.87;;;;;;;3.69;88.10;95107.19;5020979;28;20717;-76
2023/03/17 03:56:23;;;;;;;6.50;5.07;;;;;;;3.69;87.85;95108.03;5025207;28;20187;-76
2023/03/17 03:58:50;;;;;;;12.10;8.27;;;;;;;3.68;88.21;95111.59;5031797;28;20184;-76
2023/03/17 04:01:16;;;;;;;16.57;10.03;;;;;;;3.64;88.33;95109.47;5031891;28;20573;-76
2023/03/17 04:03:41;;;;;;;16.52;10.02;;;;;;;3.61;88.27;95115.81;5020355;28;20491;-76
2023/03/17 04:06:07;;;;;;;12.30;8.13;;;;;;;3.38;88.43;95109.59;5025978;28;20433;-76
2023/03/17 04:08:32;;;;;;;12.63;8.00;;;;;;;3.31;89.74;95114.63;5024284;28;20429;-75
2023/03/17 04:10:58;;;;;;;11.10;8.07;;;;;;;3.31;89.76;95119.84;5023188;28;20186;-75
2023/03/17 04:13:23;;;;;;;11.33;7.57;;;;;;;3.37;89.47;95119.19;5025137;28;20188;-76
2023/03/17 04:15:49;;;;;;;14.73;8.77;;;;;;;3.36;89.29;95122.78;5011782;28;20176;-75
2023/03/17 04:18:15;;;;;;;9.93;6.93;;;;;;;3.44;89.56;95129.78;5030132;28;20175;-75
2023/03/17 04:20:41;;;;;;;7.83;5.80;;;;;;;3.53;89.48;95138.41;5030012;28;20230;-75
2023/03/17 04:23:06;;;;;;;7.80;5.47;;;;;;;3.50;88.94;95133.53;5026689;28;20558;-75
2023/03/17 04:25:32;;;;;;;7.50;5.80;;;;;;;3.56;89.05;95144.09;5011829;28;20165;-76
2023/03/17 04:27:57;;;;;;;9.50;5.83;;;;;;;3.56;89.17;95138.91;5021015;28;20182;-76
2023/03/17 04:30:23;;;;;;;8.30;6.37;;;;;;;3.59;89.64;95149.00;5031444;28;20223;-76
2023/03/17 04:32:48;;;;;;;8.53;6.23;;;;;;;3.60;89.11;95123.78;5031305;28;20180;-75
2023/03/17 04:35:17;;;;;;;12.07;8.40;;;;;;;3.62;88.66;95140.88;5013374;28;20417;-75
2023/03/17 04:37:43;;;;;;;11.30;7.23;;;;;;;3.64;88.85;95145.91;5027925;28;20734;-75
2023/03/17 04:40:11;;;;;;;10.30;6.90;;;;;;;3.67;88.89;95140.38;5024057;28;20180;-76
2023/03/17 04:42:37;;;;;;;9.70;6.53;;;;;;;3.67;88.34;95141.19;5021643;28;20527;-76
2023/03/17 04:45:05;;;;;;;9.03;6.10;;;;;;;3.73;88.43;95144.94;5025881;28;20658;-76
2023/03/17 04:47:31;;;;;;;9.38;6.90;;;;;;;3.68;88.53;95139.41;5022752;28;20443;-75
2023/03/17 04:49:56;;;;;;;10.10;6.47;;;;;;;3.77;88.23;95146.25;5020538;28;20204;-76
2023/03/17 04:52:22;;;;;;;11.83;8.03;;;;;;;3.82;87.92;95153.56;5030521;28;20191;-76
2023/03/17 04:54:47;;;;;;;8.47;6.70;;;;;;;3.85;87.73;95159.28;5018330;28;20184;-76
2023/03/17 04:57:13;;;;;;;11.90;8.43;;;;;;;3.84;87.52;95151.63;5019441;28;20416;-76
2023/03/17 04:59:38;;;;;;;12.17;8.33;;;;;;;3.79;87.81;95149.50;5014919;28;20687;-78
2023/03/17 05:02:04;;;;;;;13.63;8.83;;;;;;;3.92;87.20;95170.66;5023312;28;20555;-78
2023/03/17 05:04:29;;;;;;;12.37;8.43;;;;;;;3.88;86.77;95169.38;5025574;28;20198;-76
2023/03/17 05:06:57;;;;;;;18.53;8.33;;;;;;;3.87;87.05;95167.75;5025712;28;20171;-76
2023/03/17 05:09:23;;;;;;;19.73;9.07;;;;;;;3.80;86.98;95161.56;5023693;28;20195;-75
2023/03/17 05:11:48;;;;;;;16.27;8.80;;;;;;;3.90;87.10;95177.81;5015273;28;20172;-75
2023/03/17 05:14:14;;;;;;;13.43;8.00;;;;;;;3.93;86.63;95181.88;5013635;28;20901;-75
2023/03/17 05:16:39;;;;;;;10.97;6.97;;;;;;;3.90;86.95;95177.00;5032781;28;20206;-75
2023/03/17 05:19:05;;;;;;;7.20;5.10;;;;;;;3.89;86.49;95173.59;5034829;28;20175;-79
2023/03/17 05:21:31;;;;;;;10.93;5.97;;;;;;;3.81;86.74;95170.97;5033389;28;20869;-77
2023/03/17 05:23:56;;;;;;;9.73;5.27;;;;;;;3.87;86.75;95191.19;5034146;28;20168;-78
2023/03/17 05:26:22;;;;;;;9.03;5.43;;;;;;;3.91;86.66;95200.28;5034623;28;20234;-76
2023/03/17 05:28:47;;;;;;;8.87;5.57;;;;;;;3.95;86.48;95204.19;5031444;28;20186;-75
2023/03/17 05:31:12;;;;;;;10.73;6.00;;;;;;;3.97;86.88;95209.25;5026393;28;20647;-76
2023/03/17 05:33:38;;;;;;;9.23;5.93;;;;;;;3.99;86.59;95212.47;5034195;28;20932;-76
2023/03/17 05:36:04;;;;;;;9.43;5.57;;;;;;;3.83;86.86;95186.44;5034664;28;20184;-76
2023/03/17 05:38:29;;;;;;;8.83;6.10;;;;;;;3.99;87.13;95208.09;5028941;28;20183;-76
2023/03/17 05:40:55;;;;;;;10.13;6.53;;;;;;;4.06;87.22;95197.88;5015261;28;20733;-76
2023/03/17 05:43:20;;;;;;;10.23;7.23;;;;;;;4.07;86.55;95200.28;5021668;28;20183;-76
2023/03/17 05:45:48;;;;;;;11.00;7.33;;;;;;;3.92;86.50;95186.28;5013804;28;20168;-76
2023/03/17 05:48:14;;;;;;;10.03;7.17;;;;;;;4.09;86.48;95205.34;5032135;28;20212;-76
2023/03/17 05:50:40;;;;;;;8.33;6.60;;;;;;;4.11;86.66;95206.00;5033119;28;20199;-75
2023/03/17 05:53:06;;;;;;;8.83;6.67;;;;;;;4.03;86.24;95199.00;5033003;28;20175;-75
2023/03/17 05:55:31;;;;;;;12.30;7.30;;;;;;;4.20;86.39;95215.44;5032820;28;20175;-75
2023/03/17 05:57:56;;;;;;;15.40;8.17;;;;;;;4.25;86.06;95217.53;5033493;28;20636;-75
2023/03/17 06:00:22;;;;;;;12.40;8.87;;;;;;;4.28;85.78;95222.44;5024242;28;20180;-76
2023/03/17 06:02:48;;;;;;;12.97;8.43;;;;;;;4.30;86.04;95223.09;5023116;28;20172;-76
2023/03/17 06:05:13;;;;;;;15.27;8.77;;;;;;;4.31;85.60;95235.97;5023049;28;20186;-76
2023/03/17 06:07:40;;;;;;;13.60;9.03;;;;;;;4.36;85.43;95243.28;5026594;28;20180;-77
2023/03/17 06:10:06;;;;;;;13.50;8.87;;;;;;;4.39;85.46;95245.56;5033977;28;20211;-77
2023/03/17 06:12:32;;;;;;;15.83;9.90;;;;;;;4.34;85.79;95238.22;5033747;28;20171;-76
2023/03/17 06:14:57;;;;;;;16.90;9.73;;;;;;;4.41;85.52;95252.22;5033745;28;20703;-76
2023/03/17 06:17:23;;;;;;;20.83;10.17;;;;;;;4.47;85.62;95249.00;5033004;28;20167;-76
2023/03/17 06:19:48;;;;;;;16.33;10.77;;;;;;;4.43;85.74;95241.66;5017462;28;20632;-76
2023/03/17 06:22:13;;;;;;;16.50;9.83;;;;;;;4.57;85.35;95255.84;5026173;28;20189;-77
2023/03/17 06:24:39;;;;;;;14.63;8.40;;;;;;;4.54;84.97;95251.75;5025813;28;20251;-76
2023/03/17 06:27:04;;;;;;;15.57;9.77;;;;;;;4.61;85.17;95252.72;5033435;28;20506;-76
2023/03/17 06:29:30;;;;;;;12.93;8.27;;;;;;;4.67;84.89;95256.47;5025594;28;20255;-76
2023/03/17 06:31:55;;;;;;;16.40;9.20;;;;;;;4.75;85.20;95278.16;5030339;28;20172;-76
2023/03/17 06:34:22;;;;;;;19.10;8.20;;;;;;;4.79;84.91;95269.00;5020337;28;20648;-76
2023/03/17 06:36:48;;;;;;;19.77;9.73;;;;;;;4.83;85.25;95270.31;5025429;28;20181;-76
2023/03/17 06:39:15;;;;;;;18.67;9.20;;;;;;;4.88;85.22;95262.78;5020597;28;20179;-76
2023/03/17 06:41:40;;;;;;;12.97;7.80;;;;;;;4.99;84.80;95266.84;5014194;28;20184;-76
2023/03/17 06:44:07;;;;;;;17.40;10.40;;;;;;;5.06;84.51;95270.44;5014134;28;20558;-76
2023/03/17 06:46:33;;;;;;;17.37;9.73;;;;;;;5.06;84.08;95251.34;5028436;28;20172;-76
2023/03/17 06:48:58;;;;;;;14.87;9.93;;;;;;;5.19;83.27;95275.13;5033016;28;20725;-76
2023/03/17 06:51:24;;;;;;;24.90;12.13;;;;;;;5.18;82.97;95278.72;5024918;28;20176;-76
2023/03/17 06:53:49;;;;;;;22.07;12.83;;;;;;;5.16;83.10;95265.84;5033195;28;20172;-76
2023/03/17 06:56:15;;;;;;;20.07;11.37;;;;;;;5.25;83.54;95283.09;5016848;28;20615;-76
2023/03/17 06:58:41;;;;;;;14.73;8.17;;;;;;;5.34;82.79;95286.50;5018725;28;20854;-76
2023/03/17 07:01:07;;;;;;;19.50;9.50;;;;;;;5.23;82.66;95266.78;5022888;28;20179;-76
2023/03/17 07:03:33;;;;;;;19.53;9.83;;;;;;;5.39;82.69;95283.38;5032865;28;20631;-76
2023/03/17 07:05:59;;;;;;;22.87;10.97;;;;;;;5.42;82.31;95277.81;5032504;28;20180;-76
2023/03/17 07:08:25;;;;;;;16.80;9.67;;;;;;;5.32;82.12;95267.56;5032863;28;20176;-76
2023/03/17 07:10:54;;;;;;;22.37;9.30;;;;;;;5.44;82.18;95288.91;5032890;28;20605;-76
2023/03/17 07:13:21;;;;;;;16.67;9.27;;;;;;;5.46;82.06;95295.59;5032846;28;20245;-76
2023/03/17 07:15:47;;;;;;;15.30;8.13;;;;;;;5.54;81.70;95286.91;5019577;28;20256;-76
2023/03/17 07:18:13;;;;;;;15.93;8.10;;;;;;;5.56;81.39;95293.59;5021057;28;20602;-76
2023/03/17 07:20:39;;;;;;;12.13;7.33;;;;;;;5.58;81.89;95289.03;5021174;28;20177;-76
2023/03/17 07:23:05;;;;;;;11.50;7.27;;;;;;;5.66;81.86;95294.22;5021393;28;20734;-76
2023/03/17 07:25:30;;;;;;;12.03;6.60;;;;;;;5.63;82.29;95275.44;5031094;28;20254;-76
2023/03/17 07:27:55;;;;;;;14.33;7.93;;;;;;;5.80;81.54;95295.28;5024370;28;20221;-76
2023/03/17 07:30:21;;;;;;;20.27;8.03;;;;;;;5.86;81.93;95299.03;5031642;28;20196;-76
2023/03/17 07:32:47;;;;;;;11.93;7.60;;;;;;;5.91;81.79;95297.56;5028793;28;20259;-76
2023/03/17 07:35:14;;;;;;;14.20;8.53;;;;;;;6.02;81.80;95302.41;5012846;28;20702;-76
2023/03/17 07:37:40;;;;;;;14.33;8.73;;;;;;;6.14;81.54;95291.56;5030495;28;20183;-76
2023/03/17 07:40:08;;;;;;;14.67;8.10;;;;;;;6.09;80.83;95281.63;5018829;28;20564;-77
2023/03/17 07:42:35;;;;;;;13.87;7.93;;;;;;;6.22;80.25;95297.56;5014774;28;20233;-76
2023/03/17 07:45:01;;;;;;;9.67;6.10;;;;;;;6.23;80.09;95298.34;5032075;28;20609;-76
2023/03/17 07:47:26;;;;;;;9.70;7.10;;;;;;;6.23;79.94;95296.53;5013379;28;20215;-77
2023/03/17 07:49:52;;;;;;;7.80;5.30;;;;;;;6.29;79.06;95310.75;5030403;28;20278;-77
2023/03/17 07:52:18;;;;;;;10.93;6.53;;;;;;;6.36;79.65;95302.03;5027956;28;20179;-77
2023/03/17 07:54:43;;;;;;;10.57;5.63;;;;;;;6.40;78.50;95302.47;5029821;28;20183;-77
2023/03/17 07:57:09;;;;;;;8.43;5.07;;;;;;;6.44;78.49;95307.19;5028518;28;20184;-77
2023/03/17 07:59:35;;;;;;;5.97;4.57;;;;;;;6.51;78.15;95309.94;5030843;28;20610;-79
2023/03/17 08:02:00;;;;;;;5.70;4.17;;;;;;;6.53;77.06;95307.16;5030755;28;20225;-77
2023/03/17 08:04:26;;;;;;;9.90;5.73;;;;;;;6.60;77.26;95321.16;5030635;28;20179;-77
2023/03/17 08:06:53;;;;;;;12.00;6.53;;;;;;;6.64;76.84;95319.81;5031882;28;20183;-78
2023/03/17 08:09:19;;;;;;;14.37;8.13;;;;;;;6.56;77.16;95307.63;5015745;28;20188;-79
2023/03/17 08:11:45;;;;;;;10.70;6.00;;;;;;;6.54;78.01;95288.66;5024191;28;20168;-79
2023/03/17 08:14:11;;;;;;;9.93;5.80;;;;;;;6.74;77.26;95318.59;5022693;28;20184;-78
2023/03/17 08:16:37;;;;;;;8.20;4.17;;;;;;;6.79;76.57;95321.50;5020932;28;20165;-79
2023/03/17 08:19:03;;;;;;;6.10;3.63;;;;;;;6.81;75.90;95323.94;5024717;28;20175;-78
2023/03/17 08:21:29;;;;;;;7.40;3.33;;;;;;;6.87;76.50;95325.84;5020946;28;20207;-78
2023/03/17 08:23:55;;;;;;;4.60;2.83;;;;;;;6.63;75.01;95297.25;5026184;28;20174;-78
2023/03/17 08:26:22;;;;;;;7.30;3.90;;;;;;;6.65;73.31;95327.50;5030842;28;20180;-78
2023/03/17 08:28:47;;;;;;;4.63;3.77;;;;;;;6.62;73.75;95325.22;5030509;28;20266;-78
2023/03/17 08:31:16;;;;;;;4.17;3.30;;;;;;;6.83;74.38;95329.81;5029446;28;20254;-78
2023/03/17 08:33:45;;;;;;;5.93;3.53;;;;;;;6.95;74.05;95317.09;5030416;28;20175;-78
2023/03/17 08:36:11;;;;;;;5.03;3.53;;;;;;;7.06;73.38;95320.13;5020757;28;20180;-78
2023/03/17 08:38:39;;;;;;;7.60;4.30;;;;;;;7.15;72.17;95318.25;5020384;28;20176;-78
2023/03/17 08:41:06;;;;;;;7.70;4.57;;;;;;;7.25;72.75;95316.19;5027355;28;20176;-78
2023/03/17 08:43:34;;;;;;;3.70;2.90;;;;;;;7.31;71.26;95323.31;5023915;28;20184;-78
2023/03/17 08:46:06;;;;;;;6.90;4.07;;;;;;;7.37;70.86;95322.59;5031014;28;20179;-77
2023/03/17 08:48:36;;;;;;;8.60;5.63;;;;;;;7.44;70.92;95326.13;5031344;28;20290;-78
2023/03/17 08:51:03;;;;;;;6.37;4.73;;;;;;;7.54;71.73;95323.22;5017759;28;20238;-78
2023/03/17 08:53:29;;;;;;;7.07;4.20;;;;;;;7.62;69.37;95331.00;5023937;28;20191;-77
2023/03/17 08:55:55;;;;;;;4.73;3.43;;;;;;;7.63;67.71;95337.06;5030675;28;20631;-78
2023/03/17 08:58:21;;;;;;;5.20;3.87;;;;;;;7.55;67.34;95325.69;5021270;28;20176;-77
2023/03/17 09:00:47;;;;;;;6.10;4.03;;;;;;;7.64;68.75;95330.81;5027935;28;20246;-76
2023/03/17 09:03:14;;;;;;;6.60;4.13;;;;;;;7.56;69.27;95327.31;5030565;28;20222;-77
2023/03/17 09:05:41;;;;;;;6.53;4.00;;;;;;;7.69;69.48;95325.88;5016281;28;20180;-77
2023/03/17 09:08:07;;;;;;;7.83;3.80;;;;;;;7.84;70.78;95324.88;5015478;28;20184;-76
2023/03/17 09:10:32;;;;;;;4.77;3.77;;;;;;;7.95;69.44;95331.47;5015286;28;20295;-77
2023/03/17 09:13:02;;;;;;;4.30;3.10;;;;;;;8.04;67.97;95340.03;5019045;28;20186;-77
2023/03/17 09:15:28;;;;;;;5.07;4.07;;;;;;;8.06;68.10;95338.03;5034976;28;20184;-77
2023/03/17 09:17:54;;;;;;;7.50;3.80;;;;;;;8.11;67.45;95339.13;5024356;28;20215;-77
2023/03/17 09:20:20;;;;;;;3.93;3.30;;;;;;;8.17;66.07;95342.81;5020521;28;20172;-77
2023/03/17 09:22:47;;;;;;;7.53;4.30;;;;;;;8.17;65.28;95340.19;5026371;28;20207;-77
2023/03/17 09:25:13;;;;;;;6.53;4.00;;;;;;;8.12;64.25;95345.19;5034548;28;20710;-76
2023/03/17 09:27:39;;;;;;;6.73;3.77;;;;;;;8.01;65.70;95322.84;5034914;28;20194;-76
2023/03/17 09:30:05;;;;;;;5.83;3.70;;;;;;;8.16;66.87;95328.88;5026101;28;20594;-76
2023/03/17 09:32:31;;;;;;;5.03;3.60;;;;;;;8.26;66.30;95339.09;5020610;28;20180;-76
2023/03/17 09:34:56;;;;;;;4.97;3.60;;;;;;;8.23;66.95;95313.22;5023209;28;20171;-76
2023/03/17 09:37:21;;;;;;;6.03;3.57;;;;;;;8.43;65.76;95337.91;5030484;28;20234;-76
2023/03/17 09:39:47;;;;;;;7.73;4.07;;;;;;;8.47;64.02;95344.41;5014594;28;20177;-76
2023/03/17 09:42:25;;;;;;;5.37;3.27;;;;;;;8.45;62.49;95342.97;5032807;28;20665;-76
2023/03/17 09:45:12;;;;;;;5.27;3.03;;;;;;;8.40;61.88;95345.31;5034283;28;20187;-77
2023/03/17 09:48:11;;;;;;;5.20;3.27;;;;;;;8.34;63.68;95346.88;5027599;28;20219;-77
2023/03/17 09:51:03;;;;;;;7.07;3.67;;;;;;;8.03;63.75;95328.75;5024115;28;20239;-76
2023/03/17 09:53:34;;;;;;;7.53;3.33;;;;;;;8.26;64.49;95347.75;5017474;28;20208;-76
2023/03/17 09:56:15;;;;;;;5.87;3.63;;;;;;;8.35;64.68;95345.88;5030867;28;20179;-77
2023/03/17 09:58:46;;;;;;;4.63;3.50;;;;;;;8.33;64.11;95334.75;5029767;28;20186;-77
2023/03/17 10:01:13;;;;;;;5.17;3.13;;;;;;;8.55;65.48;95352.16;5028317;28;20178;-76
2023/03/17 10:03:39;;;;;;;5.80;4.30;;;;;;;8.55;64.29;95349.53;5032123;28;20176;-76
2023/03/17 10:06:23;;;;;;;6.37;3.97;;;;;;;8.47;65.15;95333.09;5031208;28;20182;-76
2023/03/17 10:08:59;;;;;;;6.10;3.83;;;;;;;8.61;64.13;95354.03;5025665;28;20207;-75
2023/03/17 10:11:39;;;;;;;6.20;4.23;;;;;;;8.52;63.26;95349.91;5033270;28;20194;-76
2023/03/17 10:14:35;;;;;;;6.27;3.67;;;;;;;8.56;64.09;95351.13;5027444;28;20237;-76
2023/03/17 10:17:15;;;;;;;5.27;3.43;;;;;;;8.71;64.50;95351.09;5021879;28;20184;-75
2023/03/17 10:20:11;;;;;;;7.40;4.07;;;;;;;8.72;64.70;95344.06;5019256;28;20262;-75
2023/03/17 10:22:52;;;;;;;5.90;4.03;;;;;;;8.80;63.37;95346.56;5033411;28;20765;-76
2023/03/17 10:25:21;;;;;;;6.37;3.53;;;;;;;8.78;61.02;95346.72;5033339;28;20172;-76
2023/03/17 10:28:15;;;;;;;4.10;3.13;;;;;;;8.82;62.57;95342.72;5026513;28;20651;-76
2023/03/17 10:30:42;;;;;;;5.10;3.60;;;;;;;8.86;61.24;95343.97;5027610;28;20203;-75
2023/03/17 10:33:07;;;;;;;5.37;3.20;;;;;;;8.88;61.35;95349.06;5029436;28;20184;-75
2023/03/17 10:35:35;;;;;;;5.27;3.87;;;;;;;8.91;61.31;95346.03;5013493;28;20176;-75
2023/03/17 10:38:12;;;;;;;5.97;3.30;;;;;;;8.75;61.54;95344.47;5023760;28;20172;-75
2023/03/17 10:40:38;;;;;;;6.47;3.07;;;;;;;8.72;62.99;95344.88;5017869;28;20183;-75
2023/03/17 10:43:08;;;;;;;5.87;3.23;;;;;;;8.49;61.21;95342.38;5031618;28;20171;-75
2023/03/17 10:45:37;;;;;;;6.60;4.57;;;;;;;8.38;61.12;95340.28;5033060;28;20203;-75
2023/03/17 10:48:07;;;;;;;6.87;4.20;;;;;;;8.56;62.74;95337.25;5024642;28;20184;-76
2023/03/17 10:50:35;;;;;;;7.27;4.07;;;;;;;8.72;64.15;95334.38;5032517;28;20209;-76
2023/03/17 10:53:26;;;;;;;6.83;3.80;;;;;;;8.80;61.84;95330.81;5032844;28;20184;-76
2023/03/17 10:55:55;;;;;;;4.43;3.13;;;;;;;8.94;62.53;95324.66;5033075;28;20584;-75
2023/03/17 10:58:33;;;;;;;8.73;3.50;;;;;;;8.96;62.46;95306.91;5032911;28;20183;-76
2023/03/17 11:01:07;;;;;;;7.37;3.30;;;;;;;9.20;60.10;95313.56;5028664;28;20183;-76
2023/03/17 11:03:38;;;;;;;7.67;3.63;;;;;;;9.29;61.67;95307.16;5024114;28;20251;-76
2023/03/17 11:06:09;;;;;;;5.97;3.60;;;;;;;9.41;61.93;95303.00;5029496;28;20279;-76
2023/03/17 11:08:55;;;;;;;6.27;3.50;;;;;;;9.56;61.01;95303.69;5019261;28;20180;-76
2023/03/17 11:11:27;;;;;;;5.57;3.03;;;;;;;9.65;60.29;95297.28;5029129;28;20210;-76
2023/03/17 11:14:18;;;;;;;4.83;3.17;;;;;;;9.73;56.19;95312.91;5037451;28;20180;-76
2023/03/17 11:16:55;;;;;;;7.43;2.93;;;;;;;9.71;58.99;95296.50;5016961;28;20184;-77
2023/03/17 11:19:35;;;;;;;3.73;2.63;;;;;;;9.80;57.88;95307.66;5022873;28;20183;-77
2023/03/17 11:22:13;;;;;;;4.23;2.90;;;;;;;9.60;56.34;95312.03;5032042;28;20191;-75
2023/03/17 11:24:48;;;;;;;7.83;3.50;;;;;;;9.59;58.69;95299.88;5031659;28;20186;-75
2023/03/17 11:27:30;;;;;;;3.70;2.90;;;;;;;9.56;57.42;95306.34;5031716;28;20672;-76
2023/03/17 11:30:17;;;;;;;3.80;2.60;;;;;;;9.71;57.56;95303.56;5031859;28;20308;-75
2023/03/17 11:32:56;;;;;;;4.87;3.27;;;;;;;9.71;56.19;95303.56;5021467;28;20187;-75
2023/03/17 11:35:43;;;;;;;3.07;2.30;;;;;;;9.92;56.70;95311.38;5030118;28;20706;-75
2023/03/17 11:38:28;;;;;;;3.37;2.57;;;;;;;10.05;56.49;95293.00;5030509;28;20229;-75
2023/03/17 11:41:07;;;;;;;3.47;2.20;;;;;;;10.31;57.47;95300.22;5030302;28;20642;-75
2023/03/17 11:43:42;;;;;;;4.33;2.70;;;;;;;10.48;56.32;95282.25;5030331;28;20561;-75